createdAt,value
2022-09-18T00:01:40.763Z,-66
2022-09-18T00:04:13.774Z,-67
2022-09-18T00:06:44.204Z,-68
2022-09-18T00:09:15.613Z,-66
2022-09-18T00:11:49.301Z,-67
2022-09-18T00:14:24.004Z,-68
2022-09-18T00:16:52.547Z,-66
2022-09-18T00:19:21.639Z,-68
2022-09-18T00:21:52.100Z,-67
2022-09-18T00:24:22.159Z,-67
2022-09-18T00:26:51.213Z,-67
2022-09-18T00:29:20.544Z,-69
2022-09-18T00:31:48.727Z,-67
2022-09-18T00:34:17.601Z,-68
2022-09-18T00:36:46.304Z,-66
2022-09-18T00:39:14.634Z,-67
2022-09-18T00:41:44.857Z,-68
2022-09-18T00:44:41.004Z,-67
2022-09-18T00:47:28.463Z,-67
2022-09-18T00:50:05.720Z,-66
2022-09-18T00:52:48.263Z,-67
2022-09-18T00:55:19.471Z,-67
2022-09-18T00:57:53.914Z,-66
2022-09-18T01:00:24.982Z,-66
2022-09-18T01:02:53.786Z,-69
2022-09-18T01:05:33.096Z,-66
2022-09-18T01:08:26.415Z,-68
2022-09-18T01:11:19.016Z,-67
2022-09-18T01:14:00.988Z,-69
2022-09-18T01:16:41.846Z,-66
2022-09-18T01:19:32.100Z,-66
2022-09-18T01:22:23.796Z,-67
2022-09-18T01:25:14.724Z,-68
2022-09-18T01:28:14.869Z,-67
2022-09-18T01:30:46.933Z,-68
2022-09-18T01:33:26.815Z,-67
2022-09-18T01:36:04.058Z,-67
2022-09-18T01:38:41.015Z,-67
2022-09-18T01:41:15.045Z,-67
2022-09-18T01:43:49.431Z,-68
2022-09-18T01:46:20.838Z,-68
2022-09-18T01:48:56.296Z,-67
2022-09-18T01:51:30.361Z,-67
2022-09-18T01:54:05.914Z,-67
2022-09-18T01:56:39.984Z,-67
2022-09-18T01:59:15.334Z,-67
2022-09-18T02:01:47.638Z,-68
2022-09-18T02:04:23.492Z,-66
2022-09-18T02:07:00.854Z,-67
2022-09-18T02:09:30.266Z,-66
2022-09-18T02:12:07.030Z,-67
2022-09-18T02:14:43.276Z,-66
2022-09-18T02:17:18.412Z,-66
2022-09-18T02:19:52.969Z,-66
2022-09-18T02:22:25.156Z,-67
2022-09-18T02:25:00.158Z,-67
2022-09-18T02:27:33.075Z,-67
2022-09-18T02:30:06.199Z,-66
2022-09-18T02:32:38.062Z,-67
2022-09-18T02:35:09.716Z,-68
2022-09-18T02:37:55.727Z,-67
2022-09-18T02:40:39.462Z,-68
2022-09-18T02:43:28.099Z,-66
2022-09-18T02:46:08.839Z,-67
2022-09-18T02:48:53.757Z,-67
2022-09-18T02:51:32.796Z,-66
2022-09-18T02:54:08.527Z,-67
2022-09-18T02:56:43.638Z,-68
2022-09-18T02:59:19.455Z,-65
2022-09-18T03:01:49.577Z,-67
2022-09-18T03:04:24.162Z,-68
2022-09-18T03:06:52.407Z,-67
2022-09-18T03:09:22.060Z,-66
2022-09-18T03:11:50.870Z,-66
2022-09-18T03:14:18.877Z,-68
2022-09-18T03:16:48.265Z,-67
2022-09-18T03:19:17.388Z,-66
2022-09-18T03:21:45.722Z,-66
2022-09-18T03:24:13.955Z,-66
2022-09-18T03:26:41.945Z,-66
2022-09-18T03:29:10.405Z,-66
2022-09-18T03:31:38.767Z,-66
2022-09-18T03:34:08.513Z,-67
2022-09-18T03:36:36.922Z,-67
2022-09-18T03:39:05.717Z,-67
2022-09-18T03:41:33.755Z,-66
2022-09-18T03:44:01.769Z,-67
2022-09-18T03:46:29.816Z,-65
2022-09-18T03:48:58.015Z,-67
2022-09-18T03:51:27.371Z,-67
2022-09-18T03:53:55.312Z,-67
2022-09-18T03:56:23.381Z,-66
2022-09-18T03:58:51.890Z,-67
2022-09-18T04:01:19.962Z,-67
2022-09-18T04:03:47.990Z,-67
2022-09-18T04:06:16.936Z,-66
2022-09-18T04:08:46.252Z,-67
2022-09-18T04:11:14.248Z,-66
2022-09-18T04:13:42.239Z,-67
2022-09-18T04:16:10.334Z,-66
2022-09-18T04:18:38.300Z,-67
2022-09-18T04:21:06.725Z,-67
2022-09-18T04:23:34.722Z,-66
2022-09-18T04:26:09.287Z,-65
2022-09-18T04:28:38.014Z,-67
2022-09-18T04:31:06.771Z,-65
2022-09-18T04:33:34.921Z,-66
2022-09-18T04:36:03.286Z,-67
2022-09-18T04:38:31.287Z,-67
2022-09-18T04:41:00.604Z,-67
2022-09-18T04:43:30.209Z,-66
2022-09-18T04:45:58.161Z,-67
2022-09-18T04:48:26.290Z,-67
2022-09-18T04:50:54.363Z,-67
2022-09-18T04:53:22.377Z,-67
2022-09-18T04:55:50.436Z,-67
2022-09-18T04:58:20.589Z,-68
2022-09-18T05:00:52.001Z,-69
2022-09-18T05:03:22.464Z,-67
2022-09-18T05:05:51.101Z,-67
2022-09-18T05:08:19.367Z,-67
2022-09-18T05:10:47.388Z,-67
2022-09-18T05:13:15.814Z,-67
2022-09-18T05:15:43.877Z,-66
2022-09-18T05:18:14.020Z,-66
2022-09-18T05:20:42.171Z,-66
2022-09-18T05:23:10.202Z,-66
2022-09-18T05:25:38.183Z,-66
2022-09-18T05:28:06.806Z,-67
2022-09-18T05:30:34.820Z,-67
2022-09-18T05:33:05.329Z,-67
2022-09-18T05:35:37.392Z,-67
2022-09-18T05:38:05.618Z,-66
2022-09-18T05:40:36.283Z,-66
2022-09-18T05:43:04.868Z,-67
2022-09-18T05:45:33.064Z,-66
2022-09-18T05:48:03.445Z,-66
2022-09-18T05:50:34.655Z,-66
2022-09-18T05:53:05.734Z,-67
2022-09-18T05:55:34.796Z,-66
2022-09-18T05:58:05.085Z,-67
2022-09-18T06:00:36.507Z,-66
2022-09-18T06:03:07.311Z,-65
2022-09-18T06:05:38.581Z,-67
2022-09-18T06:08:08.864Z,-66
2022-09-18T06:10:39.321Z,-66
2022-09-18T06:13:10.577Z,-67
2022-09-18T06:15:39.025Z,-65
2022-09-18T06:18:08.723Z,-66
2022-09-18T06:20:38.243Z,-67
2022-09-18T06:23:06.311Z,-67
2022-09-18T06:25:34.344Z,-68
2022-09-18T06:28:02.818Z,-67
2022-09-18T06:30:33.132Z,-67
2022-09-18T06:33:03.265Z,-66
2022-09-18T06:35:33.046Z,-67
2022-09-18T06:38:03.977Z,-67
2022-09-18T06:40:33.242Z,-69
2022-09-18T06:43:03.702Z,-67
2022-09-18T06:45:32.961Z,-66
2022-09-18T06:48:04.756Z,-67
2022-09-18T06:50:32.962Z,-67
2022-09-18T06:53:10.075Z,-67
2022-09-18T06:55:40.350Z,-67
2022-09-18T06:58:08.672Z,-67
2022-09-18T07:00:36.688Z,-66
2022-09-18T07:03:05.064Z,-65
2022-09-18T07:05:33.985Z,-68
2022-09-18T07:08:03.806Z,-67
2022-09-18T07:10:31.843Z,-66
2022-09-18T07:13:02.182Z,-62
2022-09-18T07:15:30.679Z,-62
2022-09-18T07:18:00.180Z,-62
2022-09-18T07:20:29.437Z,-62
2022-09-18T07:23:00.070Z,-63
2022-09-18T07:25:32.306Z,-67
2022-09-18T07:28:04.932Z,-67
2022-09-18T07:30:33.166Z,-66
2022-09-18T07:33:03.353Z,-66
2022-09-18T07:35:31.545Z,-66
2022-09-18T07:38:00.059Z,-65
2022-09-18T07:40:30.097Z,-67
2022-09-18T07:43:01.116Z,-65
2022-09-18T07:45:29.545Z,-66
2022-09-18T07:47:58.015Z,-66
2022-09-18T07:50:25.973Z,-66
2022-09-18T07:52:57.261Z,-66
2022-09-18T07:55:28.343Z,-66
2022-09-18T07:58:00.707Z,-66
2022-09-18T08:00:31.348Z,-66
2022-09-18T08:03:04.231Z,-66
2022-09-18T08:05:32.815Z,-67
2022-09-18T08:08:05.094Z,-66
2022-09-18T08:10:34.306Z,-66
2022-09-18T08:13:04.124Z,-66
2022-09-18T08:15:33.477Z,-66
2022-09-18T08:18:01.672Z,-68
2022-09-18T08:20:29.772Z,-67
2022-09-18T08:22:58.488Z,-66
2022-09-18T08:25:28.368Z,-66
2022-09-18T08:27:59.863Z,-67
2022-09-18T08:30:29.778Z,-65
2022-09-18T08:33:01.234Z,-65
2022-09-18T08:35:30.338Z,-66
2022-09-18T08:37:59.323Z,-65
2022-09-18T08:40:53.853Z,-65
2022-09-18T08:43:59.790Z,-66
2022-09-18T08:46:37.437Z,-66
2022-09-18T08:49:24.044Z,-66
2022-09-18T08:52:03.627Z,-67
2022-09-18T08:54:46.655Z,-67
2022-09-18T08:57:22.360Z,-67
2022-09-18T08:59:55.913Z,-67
2022-09-18T09:02:40.026Z,-68
2022-09-18T09:05:12.535Z,-67
2022-09-18T09:08:38.065Z,-66
2022-09-18T09:11:18.833Z,-67
2022-09-18T09:14:16.258Z,-67
2022-09-18T09:16:48.432Z,-67
2022-09-18T09:19:31.278Z,-66
2022-09-18T09:22:13.870Z,-66
2022-09-18T09:24:57.246Z,-67
2022-09-18T09:27:31.593Z,-67
2022-09-18T09:30:06.950Z,-68
2022-09-18T09:32:44.036Z,-66
2022-09-18T09:35:29.593Z,-67
2022-09-18T09:38:01.428Z,-67
2022-09-18T09:40:40.956Z,-66
2022-09-18T09:43:28.892Z,-67
2022-09-18T09:46:03.588Z,-66
2022-09-18T09:48:42.606Z,-67
2022-09-18T09:51:23.112Z,-68
2022-09-18T09:53:53.130Z,-68
2022-09-18T09:56:33.634Z,-67
2022-09-18T09:59:11.422Z,-68
2022-09-18T10:01:47.334Z,-68
2022-09-18T10:04:30.129Z,-67
2022-09-18T10:07:15.032Z,-67
2022-09-18T10:09:52.370Z,-68
2022-09-18T10:12:31.001Z,-68
2022-09-18T10:15:14.371Z,-68
2022-09-18T10:17:43.920Z,-68
2022-09-18T10:20:18.349Z,-68
2022-09-18T10:22:48.931Z,-67
2022-09-18T10:25:31.789Z,-65
2022-09-18T10:27:59.795Z,-67
2022-09-18T10:30:27.787Z,-68
2022-09-18T10:32:55.797Z,-67
2022-09-18T10:35:45.876Z,-66
2022-09-18T10:38:33.434Z,-68
2022-09-18T10:41:27.040Z,-68
2022-09-18T10:44:00.714Z,-66
2022-09-18T10:46:32.798Z,-66
2022-09-18T10:49:24.191Z,-66
2022-09-18T10:52:29.780Z,-66
2022-09-18T10:55:12.816Z,-67
2022-09-18T10:57:44.457Z,-67
2022-09-18T11:00:50.832Z,-69
2022-09-18T11:03:49.692Z,-66
2022-09-18T11:06:23.817Z,-67
2022-09-18T11:08:56.223Z,-66
2022-09-18T11:11:31.696Z,-67
2022-09-18T11:14:03.132Z,-67
2022-09-18T11:16:34.236Z,-66
2022-09-18T11:19:13.875Z,-67
2022-09-18T11:21:46.576Z,-66
2022-09-18T11:24:24.004Z,-67
2022-09-18T11:26:55.318Z,-67
2022-09-18T11:29:30.681Z,-66
2022-09-18T11:32:06.486Z,-67
2022-09-18T11:34:38.843Z,-66
2022-09-18T11:37:12.445Z,-66
2022-09-18T11:39:45.471Z,-67
2022-09-18T11:42:17.438Z,-67
2022-09-18T11:44:46.287Z,-66
2022-09-18T11:47:42.142Z,-66
2022-09-18T11:50:17.645Z,-67
2022-09-18T11:52:52.098Z,-67
2022-09-18T11:55:29.940Z,-68
2022-09-18T11:58:04.746Z,-67
2022-09-18T12:00:41.116Z,-68
2022-09-18T12:03:22.759Z,-67
2022-09-18T12:05:56.404Z,-67
2022-09-18T12:08:38.212Z,-68
2022-09-18T12:11:18.534Z,-67
2022-09-18T12:14:03.135Z,-67
2022-09-18T12:16:46.097Z,-67
2022-09-18T12:19:22.673Z,-66
2022-09-18T12:21:59.884Z,-66
2022-09-18T12:24:28.747Z,-67
2022-09-18T12:27:18.572Z,-67
2022-09-18T12:30:04.439Z,-66
2022-09-18T12:33:00.936Z,-69
2022-09-18T12:35:51.446Z,-67
2022-09-18T12:38:41.879Z,-67
2022-09-18T12:41:28.740Z,-66
2022-09-18T12:44:30.739Z,-67
2022-09-18T12:47:40.996Z,-67
2022-09-18T12:50:42.554Z,-67
2022-09-18T12:53:28.173Z,-67
2022-09-18T12:56:17.652Z,-66
2022-09-18T12:59:09.704Z,-67
2022-09-18T13:01:45.094Z,-68
2022-09-18T13:04:28.414Z,-65
2022-09-18T13:07:03.671Z,-64
2022-09-18T13:09:39.607Z,-63
2022-09-18T13:12:16.451Z,-64
2022-09-18T13:14:51.780Z,-62
2022-09-18T13:17:26.969Z,-62
2022-09-18T13:20:06.750Z,-62
2022-09-18T13:22:39.112Z,-62
2022-09-18T13:25:22.478Z,-62
2022-09-18T13:27:53.773Z,-63
2022-09-18T13:30:28.897Z,-62
2022-09-18T13:32:58.783Z,-62
2022-09-18T13:35:31.873Z,-62
2022-09-18T13:38:15.976Z,-63
2022-09-18T13:40:47.722Z,-62
2022-09-18T13:43:40.093Z,-62
2022-09-18T13:46:10.992Z,-61
2022-09-18T13:48:46.633Z,-63
2022-09-18T13:51:30.677Z,-61
2022-09-18T13:54:22.651Z,-62
2022-09-18T13:57:29.496Z,-63
2022-09-18T14:00:01.572Z,-62
2022-09-18T14:02:36.291Z,-62
2022-09-18T14:05:33.546Z,-62
2022-09-18T14:08:10.396Z,-64
2022-09-18T14:11:16.729Z,-62
2022-09-18T14:13:54.139Z,-64
2022-09-18T14:16:43.516Z,-62
2022-09-18T14:19:35.627Z,-63
2022-09-18T14:22:04.539Z,-63
2022-09-18T14:25:00.625Z,-63
2022-09-18T14:27:53.553Z,-63
2022-09-18T14:30:25.145Z,-64
2022-09-18T14:33:18.938Z,-62
2022-09-18T14:35:56.236Z,-63
2022-09-18T14:38:34.131Z,-62
2022-09-18T14:41:19.106Z,-63
2022-09-18T14:43:53.859Z,-64
2022-09-18T14:46:25.274Z,-64
2022-09-18T14:48:54.696Z,-63
2022-09-18T14:51:25.418Z,-62
2022-09-18T14:53:55.964Z,-63
2022-09-18T14:56:30.518Z,-62
2022-09-18T14:59:04.177Z,-64
2022-09-18T15:01:35.713Z,-62
2022-09-18T15:04:13.500Z,-63
2022-09-18T15:06:47.383Z,-62
2022-09-18T15:09:24.635Z,-62
2022-09-18T15:12:03.147Z,-63
2022-09-18T15:14:42.812Z,-62
2022-09-18T15:17:20.866Z,-63
2022-09-18T15:20:01.196Z,-62
2022-09-18T15:22:31.113Z,-64
2022-09-18T15:25:01.795Z,-64
2022-09-18T15:27:32.659Z,-62
2022-09-18T15:30:04.587Z,-63
2022-09-18T15:32:43.352Z,-64
2022-09-18T15:35:21.827Z,-63
2022-09-18T15:38:00.869Z,-63
2022-09-18T15:40:35.202Z,-63
2022-09-18T15:43:07.173Z,-63
2022-09-18T15:45:38.458Z,-64
2022-09-18T15:48:36.488Z,-62
2022-09-18T15:51:15.888Z,-63
2022-09-18T15:54:24.842Z,-62
2022-09-18T15:56:56.570Z,-62
2022-09-18T15:59:33.268Z,-64
2022-09-18T16:02:07.435Z,-62
2022-09-18T16:04:37.354Z,-63
2022-09-18T16:07:18.583Z,-63
2022-09-18T16:09:49.066Z,-63
2022-09-18T16:12:39.845Z,-62
2022-09-18T16:15:25.495Z,-64
2022-09-18T16:18:05.609Z,-64
2022-09-18T16:20:38.926Z,-63
2022-09-18T16:23:25.749Z,-63
2022-09-18T16:26:10.633Z,-64
2022-09-18T16:28:44.045Z,-63
2022-09-18T16:31:16.689Z,-63
2022-09-18T16:33:57.966Z,-63
2022-09-18T16:36:31.349Z,-63
2022-09-18T16:39:02.087Z,-63
2022-09-18T16:41:31.106Z,-63
2022-09-18T16:44:00.031Z,-63
2022-09-18T16:46:38.381Z,-62
2022-09-18T16:49:06.595Z,-64
2022-09-18T16:51:34.562Z,-62
2022-09-18T16:54:02.780Z,-63
2022-09-18T16:56:36.184Z,-62
2022-09-18T16:59:06.718Z,-63
2022-09-18T17:02:00.342Z,-64
2022-09-18T17:04:28.850Z,-63
2022-09-18T17:06:56.835Z,-63
2022-09-18T17:09:25.319Z,-63
2022-09-18T17:11:54.280Z,-63
2022-09-18T17:14:23.031Z,-63
2022-09-18T17:16:52.800Z,-62
2022-09-18T17:19:21.391Z,-63
2022-09-18T17:21:50.183Z,-63
2022-09-18T17:24:23.940Z,-62
2022-09-18T17:26:52.631Z,-64
2022-09-18T17:29:21.011Z,-63
2022-09-18T17:31:49.277Z,-64
2022-09-18T17:34:18.956Z,-64
2022-09-18T17:36:47.231Z,-63
2022-09-18T17:39:16.977Z,-62
2022-09-18T17:41:45.710Z,-63
2022-09-18T17:44:13.698Z,-63
2022-09-18T17:46:41.774Z,-62
2022-09-18T17:49:10.014Z,-64
2022-09-18T17:51:39.351Z,-63
2022-09-18T17:54:08.171Z,-63
2022-09-18T17:56:36.135Z,-63
2022-09-18T17:59:06.914Z,-62
2022-09-18T18:01:38.138Z,-62
2022-09-18T18:04:07.274Z,-64
2022-09-18T18:06:36.853Z,-62
2022-09-18T18:09:09.732Z,-62
2022-09-18T18:11:38.565Z,-62
2022-09-18T18:14:07.012Z,-63
2022-09-18T18:16:37.982Z,-64
2022-09-18T18:19:12.055Z,-62
2022-09-18T18:21:42.539Z,-62
2022-09-18T18:24:16.319Z,-62
2022-09-18T18:26:45.838Z,-64
2022-09-18T18:29:16.732Z,-63
2022-09-18T18:31:45.984Z,-64
2022-09-18T18:34:15.166Z,-63
2022-09-18T18:36:43.637Z,-64
2022-09-18T18:39:14.616Z,-63
2022-09-18T18:41:44.826Z,-63
2022-09-18T18:44:13.260Z,-62
2022-09-18T18:46:41.895Z,-64
2022-09-18T18:49:13.070Z,-63
2022-09-18T18:51:45.094Z,-62
2022-09-18T18:54:16.174Z,-62
2022-09-18T18:56:44.584Z,-61
2022-09-18T18:59:15.099Z,-60
2022-09-18T19:01:44.242Z,-62
2022-09-18T19:04:15.180Z,-63
2022-09-18T19:06:44.943Z,-62
2022-09-18T19:09:20.658Z,-63
2022-09-18T19:11:50.586Z,-62
2022-09-18T19:14:22.015Z,-62
2022-09-18T19:16:51.754Z,-62
2022-09-18T19:19:23.472Z,-62
2022-09-18T19:21:52.766Z,-65
2022-09-18T19:24:22.662Z,-64
2022-09-18T19:26:50.741Z,-63
2022-09-18T19:29:22.339Z,-64
2022-09-18T19:31:51.317Z,-62
2022-09-18T19:34:22.130Z,-63
2022-09-18T19:36:51.771Z,-62
2022-09-18T19:39:24.480Z,-62
2022-09-18T19:41:59.565Z,-60
2022-09-18T19:44:34.556Z,-61
2022-09-18T19:47:07.309Z,-60
2022-09-18T19:49:39.653Z,-60
2022-09-18T19:52:18.366Z,-61
2022-09-18T19:54:48.956Z,-61
2022-09-18T19:57:17.569Z,-63
2022-09-18T19:59:46.925Z,-60
2022-09-18T20:02:17.831Z,-63
2022-09-18T20:04:46.007Z,-61
2022-09-18T20:07:15.002Z,-61
2022-09-18T20:09:43.051Z,-61
2022-09-18T20:12:12.710Z,-64
2022-09-18T20:14:40.867Z,-62
2022-09-18T20:17:09.880Z,-61
2022-09-18T20:19:38.170Z,-61
2022-09-18T20:22:06.658Z,-61
2022-09-18T20:24:35.222Z,-62
2022-09-18T20:27:03.353Z,-60
2022-09-18T20:29:33.925Z,-62
2022-09-18T20:32:02.749Z,-62
2022-09-18T20:34:30.755Z,-61
2022-09-18T20:36:59.071Z,-61
2022-09-18T20:39:27.033Z,-62
2022-09-18T20:41:57.254Z,-61
2022-09-18T20:44:25.306Z,-61
2022-09-18T20:46:56.571Z,-62
2022-09-18T20:49:25.078Z,-63
2022-09-18T20:51:53.380Z,-64
2022-09-18T20:54:22.780Z,-62
2022-09-18T20:56:50.800Z,-62
2022-09-18T20:59:20.940Z,-61
2022-09-18T21:01:49.677Z,-62
2022-09-18T21:04:22.031Z,-61
2022-09-18T21:06:55.937Z,-62
2022-09-18T21:09:26.227Z,-63
2022-09-18T21:11:54.961Z,-63
2022-09-18T21:14:24.549Z,-63
2022-09-18T21:16:52.614Z,-63
2022-09-18T21:19:26.484Z,-63
2022-09-18T21:21:54.690Z,-63
2022-09-18T21:24:22.811Z,-64
2022-09-18T21:26:51.439Z,-63
2022-09-18T21:29:22.637Z,-64
2022-09-18T21:31:54.374Z,-63
2022-09-18T21:34:26.909Z,-62
2022-09-18T21:36:58.547Z,-63
2022-09-18T21:39:29.134Z,-63
2022-09-18T21:41:58.290Z,-65
2022-09-18T21:44:30.085Z,-63
2022-09-18T21:47:01.872Z,-63
2022-09-18T21:49:31.953Z,-62
2022-09-18T21:52:03.092Z,-63
2022-09-18T21:54:32.033Z,-63
2022-09-18T21:57:01.143Z,-62
2022-09-18T21:59:35.669Z,-64
2022-09-18T22:02:04.826Z,-66
2022-09-18T22:04:34.201Z,-65
2022-09-18T22:07:02.855Z,-65
2022-09-18T22:09:34.368Z,-64
2022-09-18T22:12:03.726Z,-63
2022-09-18T22:14:34.710Z,-63
2022-09-18T22:17:05.331Z,-63
2022-09-18T22:19:39.291Z,-64
2022-09-18T22:22:08.864Z,-65
2022-09-18T22:24:37.012Z,-64
2022-09-18T22:27:08.582Z,-63
2022-09-18T22:29:39.543Z,-64
2022-09-18T22:32:09.247Z,-63
2022-09-18T22:34:38.652Z,-63
2022-09-18T22:37:07.775Z,-63
2022-09-18T22:39:35.738Z,-63
2022-09-18T22:42:03.730Z,-64
2022-09-18T22:44:31.684Z,-64
2022-09-18T22:46:59.717Z,-64
2022-09-18T22:49:27.763Z,-63
2022-09-18T22:51:57.621Z,-63
2022-09-18T22:54:27.586Z,-63
2022-09-18T22:56:56.472Z,-64
2022-09-18T22:59:27.378Z,-63
2022-09-18T23:01:59.230Z,-63
2022-09-18T23:04:30.488Z,-63
2022-09-18T23:07:00.394Z,-64
2022-09-18T23:09:29.516Z,-64
2022-09-18T23:11:58.728Z,-62
2022-09-18T23:14:29.387Z,-63
2022-09-18T23:16:59.371Z,-63
2022-09-18T23:19:30.199Z,-63
2022-09-18T23:21:59.601Z,-63
2022-09-18T23:24:28.261Z,-63
2022-09-18T23:26:58.796Z,-62
2022-09-18T23:29:31.710Z,-63
2022-09-18T23:32:00.137Z,-63
2022-09-18T23:34:31.757Z,-62
2022-09-18T23:37:02.295Z,-64
2022-09-18T23:39:32.693Z,-63
2022-09-18T23:42:02.996Z,-63
2022-09-18T23:44:31.940Z,-62
2022-09-18T23:47:01.003Z,-62
2022-09-18T23:49:29.741Z,-62
2022-09-18T23:51:59.369Z,-63
2022-09-18T23:54:31.186Z,-62
2022-09-18T23:56:59.475Z,-65
2022-09-18T23:59:28.688Z,-63
